Terminal Aerodrome Forecast
Issued by NWS

Home | Current Version | Previous Version | Text Only | Print | Product List | Glossary On
Versions: 1 2 3 4 5 6 7 8 9 10 11 12 13 14 15
000
FTAK31 PAJN 272326
TAFAKT
TAF
PAKT 272326Z 2800/2824 14015G25KT 6SM -RA BR SCT008 OVC015
      WS020/16035KT
      TEMPO 2800/2803 4SM RA BR
     FM280300 13009KT 5SM -RA BR BKN020 OVC030
     FM281000 32005KT 4SM -RA BR OVC015
     FM281800 VRB05KT P6SM VCSH BKN025 OVC050
      AMD LTD TO CLD VIS AND WIND 2806/2815=

USA.gov is the U.S. government's official web portal to all federal, state and local government web resources and services.